createdAt,value
2016-11-29T00:00:02.485Z,-3.32
2016-11-29T00:05:02.811Z,-3.34
2016-11-29T00:10:02.173Z,-3.36
2016-11-29T00:15:02.545Z,-3.38
2016-11-29T00:20:02.962Z,-3.39
2016-11-29T00:25:02.320Z,-3.41
2016-11-29T00:30:02.678Z,-3.43
2016-11-29T00:35:03.002Z,-3.5
2016-11-29T00:40:02.393Z,-3.56
2016-11-29T00:45:02.798Z,-3.56
2016-11-29T00:50:03.149Z,-3.55
2016-11-29T00:55:02.524Z,-3.55
2016-11-29T01:00:02.897Z,-3.55
2016-11-29T01:05:02.250Z,-3.58
2016-11-29T01:10:02.616Z,-3.61
2016-11-29T01:15:02.962Z,-3.63
2016-11-29T01:20:02.419Z,-3.66
2016-11-29T01:25:02.771Z,-3.64
2016-11-29T01:30:03.120Z,-3.63
2016-11-29T01:35:02.490Z,-3.58
2016-11-29T01:40:02.786Z,-3.57
2016-11-29T01:45:03.131Z,-3.63
2016-11-29T01:50:02.483Z,-3.68
2016-11-29T01:55:02.838Z,-3.76
2016-11-29T02:00:02.213Z,-3.79
2016-11-29T02:05:02.579Z,-3.83
2016-11-29T02:10:02.953Z,-3.89
2016-11-29T02:15:02.392Z,-3.86
2016-11-29T02:20:02.874Z,-3.83
2016-11-29T02:25:02.293Z,-3.84
2016-11-29T02:30:02.707Z,-3.82
2016-11-29T02:35:03.072Z,-3.83
2016-11-29T02:40:02.429Z,-3.82
2016-11-29T02:45:02.792Z,-3.82
2016-11-29T02:50:03.104Z,-3.82
2016-11-29T02:55:02.447Z,-3.85
2016-11-29T03:00:02.800Z,-3.89
2016-11-29T03:05:02.153Z,-3.86
2016-11-29T03:10:02.479Z,-3.87
2016-11-29T03:15:02.848Z,-3.89
2016-11-29T03:20:02.305Z,-3.9
2016-11-29T03:25:02.662Z,-3.9
2016-11-29T03:30:03.024Z,-3.94
2016-11-29T03:35:02.360Z,-3.96
2016-11-29T03:40:02.687Z,-3.97
2016-11-29T03:45:03.007Z,-4.04
2016-11-29T03:50:02.379Z,-4.11
2016-11-29T03:55:02.712Z,-4.19
2016-11-29T04:00:03.091Z,-4.24
2016-11-29T04:05:02.455Z,-4.32
2016-11-29T04:10:02.810Z,-4.37
2016-11-29T04:15:02.169Z,-4.39
2016-11-29T04:20:02.584Z,-4.49
2016-11-29T04:25:02.948Z,-4.53
2016-11-29T04:30:02.324Z,-4.58
2016-11-29T04:35:02.746Z,-4.61
2016-11-29T04:40:03.188Z,-4.67
2016-11-29T04:45:02.576Z,-4.67
2016-11-29T04:50:02.934Z,-4.66
2016-11-29T04:55:02.294Z,-4.61
2016-11-29T05:00:02.688Z,-4.6
2016-11-29T05:05:03.009Z,-4.57
2016-11-29T05:10:02.372Z,-4.54
2016-11-29T05:15:02.672Z,-4.53
2016-11-29T05:20:03.129Z,-4.57
2016-11-29T05:30:02.699Z,-4.64
2016-11-29T05:35:03.041Z,-4.61
2016-11-29T05:40:02.411Z,-4.66
2016-11-29T05:45:02.740Z,-4.68
2016-11-29T05:50:03.098Z,-4.66
2016-11-29T05:55:02.625Z,-4.65
2016-11-29T06:00:02.963Z,-4.63
2016-11-29T06:05:02.428Z,-4.61
2016-11-29T06:10:02.778Z,-4.59
2016-11-29T06:15:03.135Z,-4.63
2016-11-29T06:20:02.572Z,-4.65
2016-11-29T06:25:02.972Z,-4.69
2016-11-29T06:30:02.355Z,-4.7
2016-11-29T06:35:02.761Z,-4.69
2016-11-29T06:40:03.123Z,-4.68
2016-11-29T06:50:02.709Z,-4.79
2016-11-29T06:55:03.074Z,-4.81
2016-11-29T07:00:02.411Z,-4.83
2016-11-29T07:05:02.828Z,-4.88
2016-11-29T07:10:02.225Z,-4.85
2016-11-29T07:15:02.547Z,-4.79
2016-11-29T07:20:02.999Z,-4.8
2016-11-29T07:25:02.354Z,-4.8
2016-11-29T07:30:02.731Z,-4.74
2016-11-29T07:35:03.092Z,-4.68
2016-11-29T07:40:02.413Z,-4.65
2016-11-29T07:45:02.770Z,-4.6
2016-11-29T07:50:03.129Z,-4.51
2016-11-29T07:55:02.474Z,-4.49
2016-11-29T08:00:02.887Z,-4.4
2016-11-29T08:05:02.254Z,-4.32
2016-11-29T08:10:02.628Z,-4.29
2016-11-29T08:15:02.974Z,-4.23
2016-11-29T08:20:02.402Z,-4.15
2016-11-29T08:25:02.738Z,-4.1
2016-11-29T08:30:03.036Z,-4.02
2016-11-29T08:35:02.408Z,-3.92
2016-11-29T08:40:02.801Z,-3.86
2016-11-29T08:45:02.170Z,-3.81
2016-11-29T08:50:02.488Z,-3.74
2016-11-29T08:55:02.831Z,-3.7
2016-11-29T09:00:02.236Z,-3.63
2016-11-29T09:05:02.562Z,-3.56
2016-11-29T09:10:02.915Z,-3.46
2016-11-29T09:15:02.308Z,-3.38
2016-11-29T09:20:02.749Z,-3.33
2016-11-29T09:25:03.104Z,-3.26
2016-11-29T09:30:02.429Z,-3.13
2016-11-29T09:35:02.767Z,-3.05
2016-11-29T09:40:03.136Z,-2.97
2016-11-29T09:45:02.470Z,-2.88
2016-11-29T09:50:02.817Z,-2.79
2016-11-29T09:55:02.175Z,-2.69
2016-11-29T10:00:02.487Z,-2.59
2016-11-29T10:05:02.912Z,-2.51
2016-11-29T10:10:02.295Z,-2.38
2016-11-29T10:15:02.694Z,-2.28
2016-11-29T10:20:03.136Z,-2.16
2016-11-29T10:25:02.447Z,-2.09
2016-11-29T10:30:02.799Z,-1.95
2016-11-29T10:35:03.150Z,-1.84
2016-11-29T10:40:02.462Z,-1.75
2016-11-29T10:45:02.812Z,-1.63
2016-11-29T10:50:02.194Z,-1.52
2016-11-29T10:55:02.524Z,-1.44
2016-11-29T11:00:02.875Z,-1.33
2016-11-29T11:05:02.195Z,-1.26
2016-11-29T11:10:02.537Z,-1.14
2016-11-29T11:15:02.943Z,-1.05
2016-11-29T11:40:02.681Z,1.07
2016-11-29T11:45:03.031Z,1.32
2016-11-29T11:50:02.384Z,1.11
2016-11-29T12:10:02.777Z,1.12
2016-11-29T12:15:03.108Z,1.19
2016-11-29T12:20:02.572Z,1.2
2016-11-29T12:25:02.926Z,1.21
2016-11-29T12:30:02.270Z,1.17
2016-11-29T12:35:02.591Z,1.2
2016-11-29T12:40:03.014Z,1.19
2016-11-29T12:45:02.336Z,1.2
2016-11-29T12:50:02.717Z,1.22
2016-11-29T12:55:03.086Z,1.19
2016-11-29T13:00:02.443Z,1.17
2016-11-29T13:05:02.806Z,1.13
2016-11-29T13:10:03.166Z,1.12
2016-11-29T13:15:02.516Z,1.08
2016-11-29T13:20:02.992Z,1.07
2016-11-29T13:25:02.363Z,1.04
2016-11-29T13:30:02.720Z,1.01
2016-11-29T15:45:02.390Z,-1.05
2016-11-29T15:50:02.753Z,-1.13
2016-11-29T15:55:03.089Z,-1.21
2016-11-29T16:00:02.452Z,-1.29
2016-11-29T16:05:02.805Z,-1.33
2016-11-29T16:10:02.166Z,-1.4
2016-11-29T16:15:02.545Z,-1.46
2016-11-29T16:20:03.014Z,-1.52
2016-11-29T16:25:02.348Z,-1.56
2016-11-29T16:30:02.713Z,-1.62
2016-11-29T16:35:03.069Z,-1.68
2016-11-29T16:40:02.402Z,-1.71
2016-11-29T16:45:02.740Z,-1.76
2016-11-29T16:50:03.180Z,-1.82
2016-11-29T16:55:02.501Z,-1.87
2016-11-29T17:00:02.881Z,-1.9
2016-11-29T17:05:02.235Z,-1.94
2016-11-29T17:10:02.631Z,-1.98
2016-11-29T17:15:02.983Z,-2
2016-11-29T17:20:02.418Z,-2.04
2016-11-29T17:25:02.770Z,-2.07
2016-11-29T17:30:03.091Z,-2.12
2016-11-29T17:35:02.452Z,-2.15
2016-11-29T17:40:02.816Z,-2.2
2016-11-29T17:45:02.159Z,-2.22
2016-11-29T17:50:02.514Z,-2.27
2016-11-29T17:55:02.883Z,-2.3
2016-11-29T18:00:02.235Z,-2.33
2016-11-29T18:05:02.616Z,-2.32
2016-11-29T18:10:02.957Z,-2.32
2016-11-29T18:15:02.314Z,-2.28
2016-11-29T18:20:02.758Z,-2.28
2016-11-29T18:25:03.114Z,-2.22
2016-11-29T18:30:02.487Z,-2.22
2016-11-29T18:35:02.833Z,-2.23
2016-11-29T18:40:02.260Z,-2.24
2016-11-29T18:45:02.646Z,-2.26
2016-11-29T18:50:03.009Z,-2.27
2016-11-29T18:55:02.360Z,-2.29
2016-11-29T19:00:02.734Z,-2.28
2016-11-29T19:05:03.125Z,-2.3
2016-11-29T19:10:02.538Z,-2.34
2016-11-29T19:15:02.898Z,-2.35
2016-11-29T19:20:02.390Z,-2.36
2016-11-29T19:25:02.758Z,-2.38
2016-11-29T19:30:03.099Z,-2.43
2016-11-29T19:35:02.436Z,-2.45
2016-11-29T19:40:02.814Z,-2.45
2016-11-29T19:45:02.196Z,-2.44
2016-11-29T19:50:02.580Z,-2.46
2016-11-29T19:55:02.930Z,-2.44
2016-11-29T20:00:02.279Z,-2.45
2016-11-29T20:05:02.636Z,-2.48
2016-11-29T20:10:02.974Z,-2.5
2016-11-29T20:15:02.337Z,-2.51
2016-11-29T20:20:02.820Z,-2.53
2016-11-29T20:25:02.194Z,-2.56
2016-11-29T20:30:02.562Z,-2.58
2016-11-29T20:35:02.944Z,-2.59
2016-11-29T20:40:02.301Z,-2.61
2016-11-29T20:45:02.684Z,-2.61
2016-11-29T20:50:03.049Z,-2.61
2016-11-29T20:55:02.378Z,-2.62
2016-11-29T21:00:02.747Z,-2.64
2016-11-29T21:05:03.094Z,-2.64
2016-11-29T21:10:02.422Z,-2.63
2016-11-29T21:15:02.755Z,-2.6
2016-11-29T21:20:02.263Z,-2.58
2016-11-29T21:25:02.688Z,-2.59
2016-11-29T21:30:03.067Z,-2.62
2016-11-29T21:35:02.444Z,-2.67
2016-11-29T21:40:02.792Z,-2.73
2016-11-29T21:45:02.160Z,-2.76
2016-11-29T21:50:02.514Z,-2.81
2016-11-29T21:55:02.864Z,-2.86
2016-11-29T22:00:02.398Z,-2.92
2016-11-29T22:05:02.835Z,-2.96
2016-11-29T22:10:02.216Z,-3
2016-11-29T22:15:02.557Z,-3.03
2016-11-29T22:20:02.983Z,-3.07
2016-11-29T22:25:02.310Z,-3.15
2016-11-29T22:30:02.646Z,-3.16
2016-11-29T22:35:03.001Z,-3.17
2016-11-29T22:40:02.372Z,-3.18
2016-11-29T22:45:02.732Z,-3.18
2016-11-29T22:50:03.251Z,-3.21
2016-11-29T22:55:02.600Z,-3.21
2016-11-29T23:00:02.992Z,-3.24
2016-11-29T23:05:02.349Z,-3.26
2016-11-29T23:10:02.696Z,-3.26
2016-11-29T23:15:03.038Z,-3.27
2016-11-29T23:20:02.460Z,-3.26
2016-11-29T23:25:02.763Z,-3.28
2016-11-29T23:30:03.079Z,-3.27
2016-11-29T23:35:02.420Z,-3.24
2016-11-29T23:40:02.756Z,-3.22
2016-11-29T23:45:03.060Z,-3.2
2016-11-29T23:50:02.401Z,-3.21
2016-11-29T23:55:02.710Z,-3.21
